Time,TemperatureF,DewpointF,PressureIn,WindDirection,WindDirectionDegrees,WindSpeedMPH,WindSpeedGustMPH,Humidity,HourlyPrecipIn,Conditions,Clouds,dailyrainin,SoftwareType,DateUTC
2013-08-21 00:01:00,70.2,62.2,30.13,SSE,157,0.0,0.0,76,0.00,,,0.00,WUHU21623XXSP,2013-08-21 04:01:00,
2013-08-21 00:06:00,70.2,62.2,30.14,SSE,157,0.0,0.0,76,0.00,,,0.00,WUHU21623XXSP,2013-08-21 04:06:00,
2013-08-21 00:11:00,69.8,62.2,30.14,SSE,157,0.0,0.0,77,0.00,,,0.00,WUHU21623XXSP,2013-08-21 04:11:00,
2013-08-21 00:16:00,69.6,62.0,30.14,SSE,157,0.0,0.0,77,0.00,,,0.00,WUHU21623XXSP,2013-08-21 04:16:00,
2013-08-21 00:21:00,69.6,62.0,30.14,SSE,157,0.0,0.0,77,0.00,,,0.00,WUHU21623XXSP,2013-08-21 04:21:00,
2013-08-21 00:26:00,69.6,62.0,30.14,SSE,157,0.0,0.0,77,0.00,,,0.00,WUHU21623XXSP,2013-08-21 04:26:00,
2013-08-21 00:31:00,69.6,62.0,30.14,SSE,157,0.0,0.0,77,0.00,,,0.00,WUHU21623XXSP,2013-08-21 04:31:00,
2013-08-21 00:36:00,69.6,62.0,30.14,SSE,157,0.0,0.0,77,0.00,,,0.00,WUHU21623XXSP,2013-08-21 04:36:00,
2013-08-21 00:41:00,69.4,61.9,30.14,SSE,157,0.0,0.0,77,0.00,,,0.00,WUHU21623XXSP,2013-08-21 04:41:00,
2013-08-21 00:46:00,69.4,62.2,30.14,SSE,157,0.0,0.0,78,0.00,,,0.00,WUHU21623XXSP,2013-08-21 04:46:00,
2013-08-21 00:51:00,69.4,62.2,30.14,SSE,157,0.0,0.0,78,0.00,,,0.00,WUHU21623XXSP,2013-08-21 04:51:00,
2013-08-21 00:56:00,69.4,62.2,30.14,SSE,157,0.0,0.0,78,0.00,,,0.00,WUHU21623XXSP,2013-08-21 04:56:00,
2013-08-21 01:01:00,69.3,62.1,30.14,SSE,157,0.0,0.0,78,0.00,,,0.00,WUHU21623XXSP,2013-08-21 05:01:00,
2013-08-21 01:06:00,69.1,61.9,30.14,SSE,157,0.0,0.0,78,0.00,,,0.00,WUHU21623XXSP,2013-08-21 05:06:00,
2013-08-21 01:11:00,68.9,61.8,30.14,SSE,157,0.0,0.0,78,0.00,,,0.00,WUHU21623XXSP,2013-08-21 05:11:00,
2013-08-21 01:16:00,68.9,61.8,30.14,SSE,157,0.0,0.0,78,0.00,,,0.00,WUHU21623XXSP,2013-08-21 05:16:00,
2013-08-21 01:21:00,68.7,61.6,30.14,SSE,157,0.0,0.0,78,0.00,,,0.00,WUHU21623XXSP,2013-08-21 05:21:00,
2013-08-21 01:26:00,68.5,61.4,30.14,SSE,157,0.0,0.0,78,0.00,,,0.00,WUHU21623XXSP,2013-08-21 05:26:00,
2013-08-21 01:31:00,68.4,61.3,30.14,SSE,157,0.0,0.0,78,0.00,,,0.00,WUHU21623XXSP,2013-08-21 05:31:00,
2013-08-21 01:36:00,68.2,61.1,30.14,SSE,157,0.0,0.0,78,0.00,,,0.00,WUHU21623XXSP,2013-08-21 05:36:00,
2013-08-21 01:41:00,68.0,61.3,30.14,SSE,157,0.0,0.0,79,0.00,,,0.00,WUHU21623XXSP,2013-08-21 05:41:00,
2013-08-21 01:46:00,67.8,61.1,30.14,SSE,157,0.0,0.0,79,0.00,,,0.00,WUHU21623XXSP,2013-08-21 05:46:00,
2013-08-21 01:51:00,67.6,61.0,30.14,SSE,157,0.0,0.0,79,0.00,,,0.00,WUHU21623XXSP,2013-08-21 05:51:00,
2013-08-21 01:56:00,67.6,61.3,30.14,SSE,157,0.0,0.0,80,0.00,,,0.00,WUHU21623XXSP,2013-08-21 05:56:00,
2013-08-21 02:01:00,67.8,61.5,30.14,SSE,157,0.0,0.0,80,0.00,,,0.00,WUHU21623XXSP,2013-08-21 06:01:00,
2013-08-21 02:06:00,67.8,61.5,30.14,SSE,157,0.0,0.0,80,0.00,,,0.00,WUHU21623XXSP,2013-08-21 06:06:00,
2013-08-21 02:11:00,67.6,61.3,30.14,SSE,157,0.0,0.0,80,0.00,,,0.00,WUHU21623XXSP,2013-08-21 06:11:00,
2013-08-21 02:16:00,67.6,61.3,30.14,SSE,157,0.0,0.0,80,0.00,,,0.00,WUHU21623XXSP,2013-08-21 06:16:00,
2013-08-21 02:21:00,67.6,61.3,30.13,SSE,157,0.0,0.0,80,0.00,,,0.00,WUHU21623XXSP,2013-08-21 06:21:00,
2013-08-21 02:26:00,67.6,61.3,30.13,SSE,157,0.0,0.0,80,0.00,,,0.00,WUHU21623XXSP,2013-08-21 06:26:00,
2013-08-21 02:31:00,67.6,61.3,30.13,SSE,157,0.0,0.0,80,0.00,,,0.00,WUHU21623XXSP,2013-08-21 06:31:00,
2013-08-21 02:36:00,67.5,61.5,30.13,SSE,157,0.0,0.0,81,0.00,,,0.00,WUHU21623XXSP,2013-08-21 06:36:00,
2013-08-21 02:41:00,67.3,61.3,30.13,SSE,157,0.0,0.0,81,0.00,,,0.00,WUHU21623XXSP,2013-08-21 06:41:00,
2013-08-21 02:46:00,67.3,61.3,30.13,SSE,157,0.0,0.0,81,0.00,,,0.00,WUHU21623XXSP,2013-08-21 06:46:00,
2013-08-21 02:51:00,67.3,61.0,30.13,SSE,157,0.0,0.0,80,0.00,,,0.00,WUHU21623XXSP,2013-08-21 06:51:00,
2013-08-21 02:56:00,67.1,60.8,30.13,SSE,157,0.0,0.0,80,0.00,,,0.00,WUHU21623XXSP,2013-08-21 06:56:00,
2013-08-21 03:01:00,67.1,61.1,30.13,SSE,157,0.0,0.0,81,0.00,,,0.00,WUHU21623XXSP,2013-08-21 07:01:00,
2013-08-21 03:06:00,66.9,60.9,30.13,SSE,157,0.0,0.0,81,0.00,,,0.00,WUHU21623XXSP,2013-08-21 07:06:00,
2013-08-21 03:11:00,66.9,60.9,30.13,SSE,157,0.0,0.0,81,0.00,,,0.00,WUHU21623XXSP,2013-08-21 07:11:00,
2013-08-21 03:16:00,66.9,60.9,30.13,SSE,157,0.0,0.0,81,0.00,,,0.00,WUHU21623XXSP,2013-08-21 07:16:00,
2013-08-21 03:21:00,66.7,60.8,30.13,SSE,157,0.0,0.0,81,0.00,,,0.00,WUHU21623XXSP,2013-08-21 07:21:00,
2013-08-21 03:26:00,66.6,60.6,30.13,SSE,157,0.0,0.0,81,0.00,,,0.00,WUHU21623XXSP,2013-08-21 07:26:00,
2013-08-21 03:31:00,66.4,60.7,30.13,SSE,157,0.0,0.0,82,0.00,,,0.00,WUHU21623XXSP,2013-08-21 07:31:00,
2013-08-21 03:36:00,66.4,60.7,30.13,SE,135,0.0,0.0,82,0.00,,,0.00,WUHU21623XXSP,2013-08-21 07:36:00,
2013-08-21 03:41:00,66.4,60.7,30.13,SE,135,0.0,0.0,82,0.00,,,0.00,WUHU21623XXSP,2013-08-21 07:41:00,
2013-08-21 03:46:00,66.6,60.9,30.13,SE,135,0.0,0.0,82,0.00,,,0.00,WUHU21623XXSP,2013-08-21 07:46:00,
2013-08-21 03:51:00,66.7,61.1,30.13,SSE,157,0.0,0.0,82,0.00,,,0.00,WUHU21623XXSP,2013-08-21 07:51:00,
2013-08-21 03:56:00,66.9,61.3,30.13,SSE,157,0.0,0.0,82,0.00,,,0.00,WUHU21623XXSP,2013-08-21 07:56:00,
2013-08-21 04:01:00,67.1,61.4,30.13,SSE,157,0.0,0.0,82,0.00,,,0.00,WUHU21623XXSP,2013-08-21 08:01:00,
2013-08-21 04:06:00,67.1,61.4,30.12,SSE,157,0.0,0.0,82,0.00,,,0.00,WUHU21623XXSP,2013-08-21 08:06:00,
2013-08-21 04:11:00,67.1,61.4,30.13,SSE,157,0.0,0.0,82,0.00,,,0.00,WUHU21623XXSP,2013-08-21 08:11:00,
2013-08-21 04:16:00,66.9,61.3,30.13,SSE,157,0.0,0.0,82,0.00,,,0.00,WUHU21623XXSP,2013-08-21 08:16:00,
2013-08-21 04:21:00,66.9,61.3,30.13,SSE,157,0.0,0.0,82,0.00,,,0.00,WUHU21623XXSP,2013-08-21 08:21:00,
2013-08-21 04:26:00,66.9,61.3,30.12,SSE,157,0.0,0.0,82,0.00,,,0.00,WUHU21623XXSP,2013-08-21 08:26:00,
2013-08-21 04:31:00,66.7,61.1,30.12,SSE,157,0.0,0.0,82,0.00,,,0.00,WUHU21623XXSP,2013-08-21 08:31:00,
2013-08-21 04:36:00,66.6,60.9,30.13,SSE,157,0.0,0.0,82,0.00,,,0.00,WUHU21623XXSP,2013-08-21 08:36:00,
2013-08-21 04:41:00,66.6,61.2,30.13,SSE,157,0.0,0.0,83,0.00,,,0.00,WUHU21623XXSP,2013-08-21 08:41:00,
2013-08-21 04:46:00,66.6,61.2,30.12,SSE,157,0.0,0.0,83,0.00,,,0.00,WUHU21623XXSP,2013-08-21 08:46:00,
2013-08-21 04:51:00,66.6,61.2,30.13,SSE,157,0.0,0.0,83,0.00,,,0.00,WUHU21623XXSP,2013-08-21 08:51:00,
2013-08-21 04:56:00,66.6,60.9,30.13,SSE,157,0.0,0.0,82,0.00,,,0.00,WUHU21623XXSP,2013-08-21 08:56:00,
2013-08-21 05:01:00,66.4,60.7,30.13,SSE,157,0.0,0.0,82,0.00,,,0.00,WUHU21623XXSP,2013-08-21 09:01:00,
2013-08-21 05:06:00,66.4,60.7,30.12,SSE,157,0.0,0.0,82,0.00,,,0.00,WUHU21623XXSP,2013-08-21 09:06:00,
2013-08-21 05:11:00,66.4,60.7,30.13,SSE,157,0.0,0.0,82,0.00,,,0.00,WUHU21623XXSP,2013-08-21 09:11:00,
2013-08-21 05:16:00,66.2,60.5,30.12,SSE,157,0.0,0.0,82,0.00,,,0.00,WUHU21623XXSP,2013-08-21 09:16:00,
2013-08-21 05:21:00,66.2,60.5,30.13,SSE,157,0.0,0.0,82,0.00,,,0.00,WUHU21623XXSP,2013-08-21 09:21:00,
2013-08-21 05:26:00,66.2,60.9,30.13,SSE,157,0.0,0.0,83,0.00,,,0.00,WUHU21623XXSP,2013-08-21 09:26:00,
2013-08-21 05:31:00,66.0,60.7,30.12,SSE,157,0.0,0.0,83,0.00,,,0.00,WUHU21623XXSP,2013-08-21 09:31:00,
2013-08-21 05:36:00,65.8,60.5,30.13,SSE,157,0.0,0.0,83,0.00,,,0.00,WUHU21623XXSP,2013-08-21 09:36:00,
2013-08-21 05:41:00,65.8,60.5,30.13,SSE,157,0.0,0.0,83,0.00,,,0.00,WUHU21623XXSP,2013-08-21 09:41:00,
2013-08-21 05:46:00,65.7,60.3,30.13,SSE,157,0.0,0.0,83,0.00,,,0.00,WUHU21623XXSP,2013-08-21 09:46:00,
2013-08-21 05:51:00,65.5,60.2,30.13,SSE,157,0.0,0.0,83,0.00,,,0.00,WUHU21623XXSP,2013-08-21 09:51:00,
2013-08-21 05:56:00,65.5,60.2,30.13,SSE,157,0.0,0.0,83,0.00,,,0.00,WUHU21623XXSP,2013-08-21 09:56:00,
2013-08-21 06:01:00,65.5,60.2,30.13,SSE,157,0.0,0.0,83,0.00,,,0.00,WUHU21623XXSP,2013-08-21 10:01:00,
2013-08-21 06:06:00,65.5,60.2,30.13,SSE,157,0.0,0.0,83,0.00,,,0.00,WUHU21623XXSP,2013-08-21 10:06:00,
2013-08-21 06:11:00,65.5,60.2,30.13,SSE,157,0.0,0.0,83,0.00,,,0.00,WUHU21623XXSP,2013-08-21 10:11:00,
2013-08-21 06:16:00,65.3,60.0,30.13,SSE,157,0.0,0.0,83,0.00,,,0.00,WUHU21623XXSP,2013-08-21 10:16:00,
2013-08-21 06:21:00,65.1,59.8,30.13,SSE,157,0.0,0.0,83,0.00,,,0.00,WUHU21623XXSP,2013-08-21 10:21:00,
2013-08-21 06:26:00,65.1,59.8,30.13,SSE,157,0.0,0.0,83,0.00,,,0.00,WUHU21623XXSP,2013-08-21 10:26:00,
2013-08-21 06:31:00,65.1,59.8,30.13,SSE,157,0.0,0.0,83,0.00,,,0.00,WUHU21623XXSP,2013-08-21 10:31:00,
2013-08-21 06:36:00,65.1,60.2,30.13,SSE,157,0.0,0.0,84,0.00,,,0.00,WUHU21623XXSP,2013-08-21 10:36:00,
2013-08-21 06:41:00,64.9,60.0,30.14,SSE,157,0.0,0.0,84,0.00,,,0.00,WUHU21623XXSP,2013-08-21 10:41:00,
2013-08-21 06:46:00,64.9,60.0,30.14,SSE,157,0.0,0.0,84,0.00,,,0.00,WUHU21623XXSP,2013-08-21 10:46:00,
2013-08-21 06:51:00,64.9,60.0,30.14,SSE,157,0.0,0.0,84,0.00,,,0.00,WUHU21623XXSP,2013-08-21 10:51:00,
2013-08-21 06:56:00,64.9,60.0,30.15,SSE,157,0.0,0.0,84,0.00,,,0.00,WUHU21623XXSP,2013-08-21 10:56:00,
2013-08-21 07:01:00,64.9,60.0,30.15,SSE,157,0.0,0.0,84,0.00,,,0.00,WUHU21623XXSP,2013-08-21 11:01:00,
2013-08-21 07:06:00,64.8,59.8,30.15,SSE,157,0.0,0.0,84,0.00,,,0.00,WUHU21623XXSP,2013-08-21 11:06:00,
2013-08-21 07:11:00,64.6,59.6,30.15,SSE,157,0.0,0.0,84,0.00,,,0.00,WUHU21623XXSP,2013-08-21 11:11:00,
2013-08-21 07:16:00,64.6,59.6,30.15,SSE,157,0.0,0.0,84,0.00,,,0.00,WUHU21623XXSP,2013-08-21 11:16:00,
2013-08-21 07:21:00,64.4,59.5,30.15,SSE,157,0.0,0.0,84,0.00,,,0.00,WUHU21623XXSP,2013-08-21 11:21:00,
2013-08-21 07:26:00,64.2,59.3,30.15,SSE,157,0.0,0.0,84,0.00,,,0.00,WUHU21623XXSP,2013-08-21 11:26:00,
2013-08-21 07:31:00,64.2,59.3,30.15,SSE,157,0.0,0.0,84,0.00,,,0.00,WUHU21623XXSP,2013-08-21 11:31:00,
2013-08-21 07:36:00,64.2,59.6,30.15,SSE,157,0.0,0.0,85,0.00,,,0.00,WUHU21623XXSP,2013-08-21 11:36:00,
2013-08-21 07:41:00,64.2,59.6,30.15,SSE,157,0.0,0.0,85,0.00,,,0.00,WUHU21623XXSP,2013-08-21 11:41:00,
2013-08-21 07:46:00,64.4,59.8,30.16,SSE,157,0.0,0.0,85,0.00,,,0.00,WUHU21623XXSP,2013-08-21 11:46:00,
2013-08-21 07:51:00,64.6,60.0,30.16,SSE,157,0.0,0.0,85,0.00,,,0.00,WUHU21623XXSP,2013-08-21 11:51:00,
2013-08-21 07:56:00,64.6,60.0,30.17,SSE,157,0.0,0.0,85,0.00,,,0.00,WUHU21623XXSP,2013-08-21 11:56:00,
2013-08-21 08:01:00,64.8,60.2,30.17,SSE,157,0.0,0.0,85,0.00,,,0.00,WUHU21623XXSP,2013-08-21 12:01:00,
2013-08-21 08:06:00,64.8,60.2,30.17,SSE,157,0.0,0.0,85,0.00,,,0.00,WUHU21623XXSP,2013-08-21 12:06:00,
2013-08-21 08:11:00,64.8,60.2,30.17,SSE,157,0.0,0.0,85,0.00,,,0.00,WUHU21623XXSP,2013-08-21 12:11:00,
2013-08-21 08:16:00,64.8,60.2,30.17,SSE,157,0.0,0.0,85,0.00,,,0.00,WUHU21623XXSP,2013-08-21 12:16:00,
2013-08-21 08:21:00,64.8,60.2,30.17,SSE,157,0.0,0.0,85,0.00,,,0.00,WUHU21623XXSP,2013-08-21 12:21:00,
2013-08-21 08:26:00,64.8,60.2,30.17,SSE,157,0.0,0.0,85,0.00,,,0.00,WUHU21623XXSP,2013-08-21 12:26:00,
2013-08-21 08:31:00,64.8,60.2,30.17,SSE,157,0.0,0.0,85,0.00,,,0.00,WUHU21623XXSP,2013-08-21 12:31:00,
2013-08-21 08:36:00,64.9,60.3,30.18,SSE,157,0.0,0.0,85,0.00,,,0.00,WUHU21623XXSP,2013-08-21 12:36:00,
2013-08-21 08:41:00,64.9,60.7,30.17,SSE,157,0.0,0.0,86,0.00,,,0.00,WUHU21623XXSP,2013-08-21 12:41:00,
2013-08-21 08:46:00,65.1,60.8,30.17,SSE,157,0.0,0.0,86,0.00,,,0.00,WUHU21623XXSP,2013-08-21 12:46:00,
2013-08-21 08:51:00,65.8,61.5,30.17,SSE,157,0.0,0.0,86,0.00,,,0.00,WUHU21623XXSP,2013-08-21 12:51:00,
2013-08-21 08:56:00,66.0,62.0,30.17,SSE,157,0.0,0.0,87,0.00,,,0.00,WUHU21623XXSP,2013-08-21 12:56:00,
2013-08-21 09:01:00,66.6,62.5,30.17,SSE,157,0.0,0.0,87,0.00,,,0.00,WUHU21623XXSP,2013-08-21 13:01:00,
2013-08-21 09:06:00,67.1,63.1,30.17,SSE,157,0.0,0.0,87,0.00,,,0.00,WUHU21623XXSP,2013-08-21 13:06:00,
2013-08-21 09:11:00,67.6,63.6,30.16,SSE,157,0.0,0.0,87,0.00,,,0.00,WUHU21623XXSP,2013-08-21 13:11:00,
2013-08-21 09:16:00,68.2,64.1,30.16,South,180,0.0,0.0,87,0.00,,,0.00,WUHU21623XXSP,2013-08-21 13:16:00,
2013-08-21 09:21:00,68.5,64.5,30.17,SW,225,0.0,0.0,87,0.00,,,0.00,WUHU21623XXSP,2013-08-21 13:21:00,
2013-08-21 09:26:00,68.9,64.8,30.17,WSW,247,0.0,0.0,87,0.00,,,0.00,WUHU21623XXSP,2013-08-21 13:26:00,
2013-08-21 09:31:00,69.6,65.5,30.16,SSE,157,0.0,0.0,87,0.00,,,0.00,WUHU21623XXSP,2013-08-21 13:31:00,
2013-08-21 09:36:00,70.0,65.9,30.17,South,180,0.0,0.0,87,0.00,,,0.00,WUHU21623XXSP,2013-08-21 13:36:00,
2013-08-21 09:41:00,70.3,66.3,30.17,West,270,0.0,0.0,87,0.00,,,0.00,WUHU21623XXSP,2013-08-21 13:41:00,
2013-08-21 09:46:00,70.9,66.8,30.17,SSE,157,0.0,0.0,87,0.00,,,0.00,WUHU21623XXSP,2013-08-21 13:46:00,
2013-08-21 09:51:00,70.9,66.8,30.17,SW,225,0.0,0.0,87,0.00,,,0.00,WUHU21623XXSP,2013-08-21 13:51:00,
2013-08-21 09:56:00,71.4,67.3,30.17,WSW,247,0.0,0.0,87,0.00,,,0.00,WUHU21623XXSP,2013-08-21 13:56:00,
2013-08-21 10:01:00,71.8,67.4,30.16,WSW,247,0.0,0.0,86,0.00,,,0.00,WUHU21623XXSP,2013-08-21 14:01:00,
2013-08-21 10:06:00,72.0,67.5,30.17,WSW,247,0.0,0.0,86,0.00,,,0.00,WUHU21623XXSP,2013-08-21 14:06:00,
2013-08-21 10:11:00,72.0,67.5,30.17,WSW,247,0.0,0.0,86,0.00,,,0.00,WUHU21623XXSP,2013-08-21 14:11:00,
2013-08-21 10:16:00,72.1,67.4,30.17,WSW,247,0.0,0.0,85,0.00,,,0.00,WUHU21623XXSP,2013-08-21 14:16:00,
2013-08-21 10:21:00,72.3,67.6,30.18,WSW,247,0.0,0.0,85,0.00,,,0.00,WUHU21623XXSP,2013-08-21 14:21:00,
2013-08-21 10:26:00,72.3,67.6,30.17,WSW,247,0.0,0.0,85,0.00,,,0.00,WUHU21623XXSP,2013-08-21 14:26:00,
2013-08-21 10:31:00,72.3,67.6,30.16,WSW,247,0.0,0.0,85,0.00,,,0.00,WUHU21623XXSP,2013-08-21 14:31:00,
2013-08-21 10:36:00,72.3,67.6,30.16,WSW,247,0.0,0.0,85,0.00,,,0.00,WUHU21623XXSP,2013-08-21 14:36:00,
2013-08-21 10:41:00,72.7,67.6,30.17,South,180,0.0,0.0,84,0.00,,,0.00,WUHU21623XXSP,2013-08-21 14:41:00,
2013-08-21 10:46:00,73.0,67.9,30.17,WSW,247,0.0,0.0,84,0.00,,,0.00,WUHU21623XXSP,2013-08-21 14:46:00,
2013-08-21 10:51:00,73.0,67.9,30.18,WSW,247,0.0,0.0,84,0.00,,,0.00,WUHU21623XXSP,2013-08-21 14:51:00,
2013-08-21 10:56:00,73.2,68.1,30.18,WSW,247,0.0,0.0,84,0.00,,,0.00,WUHU21623XXSP,2013-08-21 14:56:00,
2013-08-21 11:01:00,73.1,68.0,30.18,WSW,247,0.0,0.0,84,0.00,,,0.00,WUHU21623XXSP,2013-08-21 15:01:00,
2013-08-21 11:06:00,73.2,68.1,30.18,WSW,247,0.0,0.0,84,0.00,,,0.00,WUHU21623XXSP,2013-08-21 15:06:00,
2013-08-21 11:11:00,73.1,68.0,30.18,WSW,247,0.0,0.0,84,0.00,,,0.00,WUHU21623XXSP,2013-08-21 15:11:00,
2013-08-21 11:16:00,72.9,67.8,30.18,SSW,202,0.0,0.0,84,0.00,,,0.00,WUHU21623XXSP,2013-08-21 15:16:00,
2013-08-21 11:21:00,72.8,67.4,30.18,SSW,202,0.0,0.0,83,0.00,,,0.00,WUHU21623XXSP,2013-08-21 15:21:00,
2013-08-21 11:26:00,72.5,67.1,30.18,SSW,202,0.0,0.0,83,0.00,,,0.00,WUHU21623XXSP,2013-08-21 15:26:00,
2013-08-21 11:31:00,72.4,67.0,30.19,SSW,202,0.0,0.0,83,0.00,,,0.00,WUHU21623XXSP,2013-08-21 15:31:00,
2013-08-21 11:36:00,72.1,66.7,30.18,SSE,157,0.0,0.0,83,0.00,,,0.00,WUHU21623XXSP,2013-08-21 15:36:00,
2013-08-21 11:41:00,72.0,66.6,30.18,SSE,157,0.0,0.0,83,0.00,,,0.00,WUHU21623XXSP,2013-08-21 15:41:00,
2013-08-21 11:46:00,71.7,66.4,30.18,SW,225,0.0,0.0,83,0.00,,,0.00,WUHU21623XXSP,2013-08-21 15:46:00,
2013-08-21 11:51:00,71.5,66.1,30.18,SW,225,0.0,0.0,83,0.00,,,0.00,WUHU21623XXSP,2013-08-21 15:51:00,
2013-08-21 11:56:00,71.5,66.1,30.18,SW,225,0.0,0.0,83,0.00,,,0.00,WUHU21623XXSP,2013-08-21 15:56:00,
2013-08-21 12:01:00,71.4,66.0,30.18,SSW,202,0.0,0.0,83,0.00,,,0.00,WUHU21623XXSP,2013-08-21 16:01:00,
2013-08-21 12:06:00,71.2,65.5,30.17,South,180,0.9,0.9,82,0.00,,,0.00,WUHU21623XXSP,2013-08-21 16:06:00,
2013-08-21 12:11:00,71.3,65.6,30.17,SSE,157,0.0,0.9,82,0.00,,,0.00,WUHU21623XXSP,2013-08-21 16:11:00,
2013-08-21 12:16:00,71.4,65.7,30.17,SSE,157,0.0,0.9,82,0.00,,,0.00,WUHU21623XXSP,2013-08-21 16:16:00,
2013-08-21 12:21:00,71.1,65.4,30.17,SW,225,0.0,0.0,82,0.00,,,0.00,WUHU21623XXSP,2013-08-21 16:21:00,
2013-08-21 12:26:00,71.1,65.4,30.17,South,180,0.0,0.0,82,0.00,,,0.00,WUHU21623XXSP,2013-08-21 16:26:00,
2013-08-21 12:31:00,71.3,65.6,30.17,WSW,247,0.0,0.0,82,0.00,,,0.00,WUHU21623XXSP,2013-08-21 16:31:00,
2013-08-21 12:36:00,71.4,65.7,30.17,SSE,157,0.0,0.0,82,0.00,,,0.00,WUHU21623XXSP,2013-08-21 16:36:00,
2013-08-21 12:41:00,71.4,65.3,30.16,WSW,247,0.0,0.0,81,0.00,,,0.00,WUHU21623XXSP,2013-08-21 16:41:00,
2013-08-21 12:46:00,71.2,65.1,30.16,South,180,0.0,0.0,81,0.00,,,0.00,WUHU21623XXSP,2013-08-21 16:46:00,
2013-08-21 12:51:00,71.4,65.4,30.16,WSW,247,0.0,0.0,81,0.00,,,0.00,WUHU21623XXSP,2013-08-21 16:51:00,
2013-08-21 12:56:00,71.6,65.1,30.16,South,180,0.0,0.0,80,0.00,,,0.00,WUHU21623XXSP,2013-08-21 16:56:00,
2013-08-21 13:01:00,71.6,65.2,30.15,South,180,0.0,0.0,80,0.00,,,0.00,WUHU21623XXSP,2013-08-21 17:01:00,
2013-08-21 13:06:00,71.5,65.0,30.15,West,270,1.3,1.3,80,0.00,,,0.00,WUHU21623XXSP,2013-08-21 17:06:00,
2013-08-21 13:11:00,71.3,64.6,30.15,ENE,67,0.0,1.3,79,0.00,,,0.00,WUHU21623XXSP,2013-08-21 17:11:00,
2013-08-21 13:16:00,72.1,65.0,30.15,SSE,157,0.0,1.3,78,0.00,,,0.00,WUHU21623XXSP,2013-08-21 17:16:00,
2013-08-21 13:21:00,72.7,65.2,30.14,SSE,157,0.0,0.0,77,0.00,,,0.00,WUHU21623XXSP,2013-08-21 17:21:00,
2013-08-21 13:26:00,72.8,64.9,30.14,South,180,0.0,0.0,76,0.00,,,0.00,WUHU21623XXSP,2013-08-21 17:26:00,
2013-08-21 13:31:00,73.4,65.2,30.14,NNW,337,0.0,0.0,75,0.00,,,0.00,WUHU21623XXSP,2013-08-21 17:31:00,
2013-08-21 13:36:00,73.5,65.3,30.14,NNW,337,0.0,0.0,75,0.00,,,0.00,WUHU21623XXSP,2013-08-21 17:36:00,
2013-08-21 13:41:00,74.1,65.4,30.14,SE,135,0.0,0.0,74,0.00,,,0.00,WUHU21623XXSP,2013-08-21 17:41:00,
2013-08-21 13:46:00,74.1,65.5,30.14,West,270,0.0,0.0,74,0.00,,,0.00,WUHU21623XXSP,2013-08-21 17:46:00,
2013-08-21 13:51:00,74.3,65.3,30.14,SSE,157,0.0,0.0,73,0.00,,,0.00,WUHU21623XXSP,2013-08-21 17:51:00,
2013-08-21 13:56:00,74.5,65.1,30.14,SSE,157,0.0,0.0,72,0.00,,,0.00,WUHU21623XXSP,2013-08-21 17:56:00,
2013-08-21 14:01:00,74.7,64.9,30.14,SSE,157,0.0,0.0,71,0.00,,,0.00,WUHU21623XXSP,2013-08-21 18:01:00,
2013-08-21 14:06:00,74.9,64.7,30.13,South,180,0.0,0.0,70,0.00,,,0.00,WUHU21623XXSP,2013-08-21 18:06:00,
2013-08-21 14:11:00,75.0,64.8,30.13,West,270,0.0,0.0,70,0.00,,,0.00,WUHU21623XXSP,2013-08-21 18:11:00,
2013-08-21 14:16:00,75.3,64.2,30.13,SSE,157,0.9,0.9,68,0.00,,,0.00,WUHU21623XXSP,2013-08-21 18:16:00,
2013-08-21 14:21:00,75.5,64.8,30.13,SSW,202,0.0,0.9,69,0.00,,,0.00,WUHU21623XXSP,2013-08-21 18:21:00,
2013-08-21 14:26:00,75.8,65.1,30.13,SSE,157,4.3,4.3,69,0.00,,,0.00,WUHU21623XXSP,2013-08-21 18:26:00,
2013-08-21 14:31:00,76.1,64.5,30.12,South,180,3.4,4.3,67,0.00,,,0.00,WUHU21623XXSP,2013-08-21 18:31:00,
2013-08-21 14:36:00,76.2,64.7,30.12,WSW,247,0.0,4.3,67,0.00,,,0.00,WUHU21623XXSP,2013-08-21 18:36:00,
2013-08-21 14:41:00,76.6,65.0,30.12,South,180,2.7,2.7,67,0.00,,,0.00,WUHU21623XXSP,2013-08-21 18:41:00,
2013-08-21 14:46:00,76.7,65.1,30.13,NW,315,0.0,2.7,67,0.00,,,0.00,WUHU21623XXSP,2013-08-21 18:46:00,
2013-08-21 14:51:00,77.0,65.4,30.12,WNW,292,0.0,2.7,67,0.00,,,0.00,WUHU21623XXSP,2013-08-21 18:51:00,
2013-08-21 14:56:00,77.3,65.3,30.12,SW,225,0.0,0.0,66,0.00,,,0.00,WUHU21623XXSP,2013-08-21 18:56:00,
2013-08-21 15:01:00,77.3,65.3,30.11,NW,315,0.0,0.0,66,0.00,,,0.00,WUHU21623XXSP,2013-08-21 19:01:00,
2013-08-21 15:06:00,77.2,64.8,30.11,West,270,0.0,0.0,65,0.00,,,0.00,WUHU21623XXSP,2013-08-21 19:06:00,
2013-08-21 15:11:00,77.4,65.0,30.11,SSW,202,0.0,0.0,65,0.00,,,0.00,WUHU21623XXSP,2013-08-21 19:11:00,
2013-08-21 15:16:00,77.6,65.6,30.11,WSW,247,0.0,0.0,66,0.00,,,0.00,WUHU21623XXSP,2013-08-21 19:16:00,
2013-08-21 15:21:00,77.6,65.6,30.11,SW,225,0.0,0.0,66,0.00,,,0.00,WUHU21623XXSP,2013-08-21 19:21:00,
2013-08-21 15:26:00,77.8,65.3,30.10,SSE,157,0.0,0.0,65,0.00,,,0.00,WUHU21623XXSP,2013-08-21 19:26:00,
2013-08-21 15:31:00,78.0,65.5,30.10,SSE,157,0.0,0.0,65,0.00,,,0.00,WUHU21623XXSP,2013-08-21 19:31:00,
2013-08-21 15:36:00,78.2,66.2,30.10,West,270,0.0,0.0,66,0.00,,,0.00,WUHU21623XXSP,2013-08-21 19:36:00,
2013-08-21 15:41:00,78.7,66.1,30.10,WSW,247,0.0,0.0,65,0.00,,,0.00,WUHU21623XXSP,2013-08-21 19:41:00,
2013-08-21 15:46:00,78.7,66.6,30.10,WSW,247,0.0,0.0,66,0.00,,,0.00,WUHU21623XXSP,2013-08-21 19:46:00,
2013-08-21 15:51:00,79.0,66.9,30.10,WSW,247,0.0,0.0,66,0.00,,,0.00,WUHU21623XXSP,2013-08-21 19:51:00,
2013-08-21 15:56:00,79.1,67.4,30.10,WSW,247,0.0,0.0,67,0.00,,,0.00,WUHU21623XXSP,2013-08-21 19:56:00,
2013-08-21 16:01:00,79.4,67.7,30.10,WSW,247,0.0,0.0,67,0.00,,,0.00,WUHU21623XXSP,2013-08-21 20:01:00,
2013-08-21 16:06:00,79.4,67.8,30.10,WSW,247,0.0,0.0,67,0.00,,,0.00,WUHU21623XXSP,2013-08-21 20:06:00,
2013-08-21 16:11:00,79.9,68.2,30.10,NW,315,0.0,0.0,67,0.00,,,0.00,WUHU21623XXSP,2013-08-21 20:11:00,
2013-08-21 16:16:00,80.2,68.5,30.10,NW,315,0.0,0.0,67,0.00,,,0.00,WUHU21623XXSP,2013-08-21 20:16:00,
2013-08-21 16:21:00,80.5,68.8,30.10,NW,315,0.0,0.0,67,0.00,,,0.00,WUHU21623XXSP,2013-08-21 20:21:00,
2013-08-21 16:26:00,80.9,68.7,30.10,SSW,202,0.0,0.0,66,0.00,,,0.00,WUHU21623XXSP,2013-08-21 20:26:00,
2013-08-21 16:31:00,81.2,68.5,30.10,SW,225,0.0,0.0,65,0.00,,,0.00,WUHU21623XXSP,2013-08-21 20:31:00,
2013-08-21 16:36:00,81.7,68.6,30.09,SSW,202,0.0,0.0,64,0.00,,,0.00,WUHU21623XXSP,2013-08-21 20:36:00,
2013-08-21 16:41:00,82.2,69.0,30.09,SW,225,0.0,0.0,64,0.00,,,0.00,WUHU21623XXSP,2013-08-21 20:41:00,
2013-08-21 16:46:00,82.9,69.2,30.09,SSW,202,0.0,0.0,63,0.00,,,0.00,WUHU21623XXSP,2013-08-21 20:46:00,
2013-08-21 16:51:00,83.2,69.1,30.09,WSW,247,0.0,0.0,62,0.00,,,0.00,WUHU21623XXSP,2013-08-21 20:51:00,
2013-08-21 16:56:00,83.8,70.6,30.09,WSW,247,0.0,0.0,64,0.00,,,0.00,WUHU21623XXSP,2013-08-21 20:56:00,
2013-08-21 17:01:00,84.0,69.6,30.09,WSW,247,0.0,0.0,62,0.00,,,0.00,WUHU21623XXSP,2013-08-21 21:01:00,
2013-08-21 17:06:00,84.0,69.6,30.09,WSW,247,0.0,0.0,62,0.00,,,0.00,WUHU21623XXSP,2013-08-21 21:06:00,
2013-08-21 17:11:00,84.4,69.5,30.09,NW,315,0.0,0.0,61,0.00,,,0.00,WUHU21623XXSP,2013-08-21 21:11:00,
2013-08-21 17:16:00,84.2,68.9,30.09,SW,225,0.0,0.0,60,0.00,,,0.00,WUHU21623XXSP,2013-08-21 21:16:00,
2013-08-21 17:21:00,84.4,69.1,30.09,NW,315,0.0,0.0,60,0.00,,,0.00,WUHU21623XXSP,2013-08-21 21:21:00,
2013-08-21 17:26:00,84.2,68.9,30.09,NW,315,0.0,0.0,60,0.00,,,0.00,WUHU21623XXSP,2013-08-21 21:26:00,
2013-08-21 17:31:00,84.2,68.9,30.09,West,270,0.0,0.0,60,0.00,,,0.00,WUHU21623XXSP,2013-08-21 21:31:00,
2013-08-21 17:36:00,84.2,68.9,30.09,WNW,292,0.0,0.0,60,0.00,,,0.00,WUHU21623XXSP,2013-08-21 21:36:00,
2013-08-21 17:41:00,84.0,68.7,30.09,West,270,0.0,0.0,60,0.00,,,0.00,WUHU21623XXSP,2013-08-21 21:41:00,
2013-08-21 17:46:00,84.0,68.7,30.08,West,270,0.0,0.0,60,0.00,,,0.00,WUHU21623XXSP,2013-08-21 21:46:00,
2013-08-21 17:51:00,84.0,68.7,30.08,SW,225,0.0,0.0,60,0.00,,,0.00,WUHU21623XXSP,2013-08-21 21:51:00,
2013-08-21 17:56:00,84.0,68.7,30.09,SSW,202,0.0,0.0,60,0.00,,,0.00,WUHU21623XXSP,2013-08-21 21:56:00,
2013-08-21 18:01:00,84.0,68.7,30.09,SSW,202,0.0,0.0,60,0.00,,,0.00,WUHU21623XXSP,2013-08-21 22:01:00,
2013-08-21 18:06:00,84.0,68.7,30.09,SSW,202,0.0,0.0,60,0.00,,,0.00,WUHU21623XXSP,2013-08-21 22:06:00,
2013-08-21 18:11:00,84.0,68.7,30.08,West,270,0.0,0.0,60,0.00,,,0.00,WUHU21623XXSP,2013-08-21 22:11:00,
2013-08-21 18:16:00,84.0,68.7,30.09,SW,225,0.0,0.0,60,0.00,,,0.00,WUHU21623XXSP,2013-08-21 22:16:00,
2013-08-21 18:21:00,84.0,68.7,30.08,WSW,247,0.0,0.0,60,0.00,,,0.00,WUHU21623XXSP,2013-08-21 22:21:00,
2013-08-21 18:26:00,83.8,69.0,30.08,SW,225,0.0,0.0,61,0.00,,,0.00,WUHU21623XXSP,2013-08-21 22:26:00,
2013-08-21 18:31:00,83.7,68.8,30.08,WSW,247,0.0,0.0,61,0.00,,,0.00,WUHU21623XXSP,2013-08-21 22:31:00,
2013-08-21 18:36:00,83.7,68.8,30.08,WSW,247,0.0,0.0,61,0.00,,,0.00,WUHU21623XXSP,2013-08-21 22:36:00,
2013-08-21 18:41:00,83.5,68.6,30.08,WSW,247,0.0,0.0,61,0.00,,,0.00,WUHU21623XXSP,2013-08-21 22:41:00,
2013-08-21 18:46:00,83.5,68.6,30.08,West,270,0.0,0.0,61,0.00,,,0.00,WUHU21623XXSP,2013-08-21 22:46:00,
2013-08-21 18:51:00,83.5,68.6,30.08,West,270,0.0,0.0,61,0.00,,,0.00,WUHU21623XXSP,2013-08-21 22:51:00,
2013-08-21 18:56:00,83.3,68.5,30.08,West,270,0.0,0.0,61,0.00,,,0.00,WUHU21623XXSP,2013-08-21 22:56:00,
2013-08-21 19:01:00,83.3,68.9,30.07,West,270,0.0,0.0,62,0.00,,,0.00,WUHU21623XXSP,2013-08-21 23:01:00,
2013-08-21 19:06:00,83.3,68.9,30.07,West,270,0.0,0.0,62,0.00,,,0.00,WUHU21623XXSP,2013-08-21 23:06:00,
2013-08-21 19:11:00,83.1,69.2,30.07,West,270,0.0,0.0,63,0.00,,,0.00,WUHU21623XXSP,2013-08-21 23:11:00,
2013-08-21 19:16:00,83.1,69.2,30.07,West,270,0.0,0.0,63,0.00,,,0.00,WUHU21623XXSP,2013-08-21 23:16:00,
2013-08-21 19:22:00,82.9,69.0,30.07,West,270,0.0,0.0,63,0.00,,,0.00,WUHU21623XXSP,2013-08-21 23:22:00,
2013-08-21 19:26:00,82.9,69.0,30.07,West,270,0.0,0.0,63,0.00,,,0.00,WUHU21623XXSP,2013-08-21 23:26:00,
2013-08-21 19:31:00,82.8,68.8,30.07,West,270,0.0,0.0,63,0.00,,,0.00,WUHU21623XXSP,2013-08-21 23:31:00,
2013-08-21 19:36:00,82.6,68.6,30.07,West,270,0.0,0.0,63,0.00,,,0.00,WUHU21623XXSP,2013-08-21 23:36:00,
2013-08-21 19:41:00,82.2,68.7,30.07,West,270,0.0,0.0,64,0.00,,,0.00,WUHU21623XXSP,2013-08-21 23:41:00,
2013-08-21 19:46:00,82.2,68.7,30.07,West,270,0.0,0.0,64,0.00,,,0.00,WUHU21623XXSP,2013-08-21 23:46:00,
2013-08-21 19:52:00,81.7,68.7,30.06,West,270,0.0,0.0,65,0.00,,,0.00,WUHU21623XXSP,2013-08-21 23:52:00,
2013-08-21 19:57:00,81.3,68.4,30.07,West,270,0.0,0.0,65,0.00,,,0.00,WUHU21623XXSP,2013-08-21 23:57:00,
2013-08-21 20:02:00,81.1,68.2,30.07,West,270,0.0,0.0,65,0.00,,,0.00,WUHU21623XXSP,2013-08-22 00:02:00,
2013-08-21 20:07:00,80.8,67.9,30.06,West,270,0.0,0.0,65,0.00,,,0.00,WUHU21623XXSP,2013-08-22 00:07:00,
2013-08-21 20:12:00,80.4,68.0,30.06,West,270,0.0,0.0,66,0.00,,,0.00,WUHU21623XXSP,2013-08-22 00:12:00,
2013-08-21 20:17:00,80.4,68.0,30.06,West,270,0.0,0.0,66,0.00,,,0.00,WUHU21623XXSP,2013-08-22 00:17:00,
2013-08-21 20:22:00,79.5,67.1,30.06,West,270,0.0,0.0,66,0.00,,,0.00,WUHU21623XXSP,2013-08-22 00:22:00,
2013-08-21 20:27:00,79.2,67.2,30.06,West,270,0.0,0.0,67,0.00,,,0.00,WUHU21623XXSP,2013-08-22 00:27:00,
2013-08-21 20:32:00,78.8,66.9,30.06,West,270,0.0,0.0,67,0.00,,,0.00,WUHU21623XXSP,2013-08-22 00:32:00,
2013-08-21 20:37:00,78.6,67.1,30.06,West,270,0.0,0.0,68,0.00,,,0.00,WUHU21623XXSP,2013-08-22 00:37:00,
2013-08-21 20:42:00,77.9,66.5,30.06,West,270,0.0,0.0,68,0.00,,,0.00,WUHU21623XXSP,2013-08-22 00:42:00,
2013-08-21 20:47:00,77.5,66.6,30.05,West,270,0.0,0.0,69,0.00,,,0.00,WUHU21623XXSP,2013-08-22 00:47:00,
2013-08-21 20:52:00,77.5,66.6,30.05,West,270,0.0,0.0,69,0.00,,,0.00,WUHU21623XXSP,2013-08-22 00:52:00,
2013-08-21 20:57:00,76.8,66.4,30.06,West,270,0.0,0.0,70,0.00,,,0.00,WUHU21623XXSP,2013-08-22 00:57:00,
2013-08-21 21:02:00,76.5,66.0,30.07,West,270,0.0,0.0,70,0.00,,,0.00,WUHU21623XXSP,2013-08-22 01:02:00,
2013-08-21 21:07:00,75.9,65.9,30.06,West,270,0.0,0.0,71,0.00,,,0.00,WUHU21623XXSP,2013-08-22 01:07:00,
2013-08-21 21:12:00,75.6,65.9,30.07,West,270,0.0,0.0,72,0.00,,,0.00,WUHU21623XXSP,2013-08-22 01:12:00,
2013-08-21 21:17:00,75.6,65.9,30.07,West,270,0.0,0.0,72,0.00,,,0.00,WUHU21623XXSP,2013-08-22 01:17:00,
2013-08-21 21:22:00,75.0,65.4,30.07,West,270,0.0,0.0,72,0.00,,,0.00,WUHU21623XXSP,2013-08-22 01:22:00,
2013-08-21 21:27:00,74.8,65.2,30.08,West,270,0.0,0.0,72,0.00,,,0.00,WUHU21623XXSP,2013-08-22 01:27:00,
2013-08-21 21:32:00,74.5,65.3,30.08,West,270,0.0,0.0,73,0.00,,,0.00,WUHU21623XXSP,2013-08-22 01:32:00,
2013-08-21 21:37:00,73.9,64.8,30.08,West,270,0.0,0.0,73,0.00,,,0.00,WUHU21623XXSP,2013-08-22 01:37:00,
2013-08-21 21:42:00,73.8,65.0,30.08,West,270,0.0,0.0,74,0.00,,,0.00,WUHU21623XXSP,2013-08-22 01:42:00,
2013-08-21 21:47:00,73.6,64.8,30.09,West,270,0.0,0.0,74,0.00,,,0.00,WUHU21623XXSP,2013-08-22 01:47:00,
2013-08-21 21:52:00,73.2,64.5,30.09,West,270,0.0,0.0,74,0.00,,,0.00,WUHU21623XXSP,2013-08-22 01:52:00,
2013-08-21 21:57:00,73.0,64.3,30.10,West,270,0.0,0.0,74,0.00,,,0.00,WUHU21623XXSP,2013-08-22 01:57:00,
2013-08-21 22:02:00,72.7,64.3,30.10,West,270,0.0,0.0,75,0.00,,,0.00,WUHU21623XXSP,2013-08-22 02:02:00,
2013-08-21 22:07:00,72.3,64.0,30.11,West,270,0.0,0.0,75,0.00,,,0.00,WUHU21623XXSP,2013-08-22 02:07:00,
2013-08-21 22:12:00,72.1,64.1,30.11,West,270,0.0,0.0,76,0.00,,,0.00,WUHU21623XXSP,2013-08-22 02:12:00,
2013-08-21 22:17:00,72.1,64.1,30.11,West,270,0.0,0.0,76,0.00,,,0.00,WUHU21623XXSP,2013-08-22 02:17:00,
2013-08-21 22:22:00,72.0,64.3,30.11,West,270,0.0,0.0,77,0.00,,,0.00,WUHU21623XXSP,2013-08-22 02:22:00,
2013-08-21 22:27:00,71.8,64.2,30.11,West,270,0.0,0.0,77,0.00,,,0.00,WUHU21623XXSP,2013-08-22 02:27:00,
2013-08-21 22:32:00,71.4,64.2,30.11,West,270,0.0,0.0,78,0.00,,,0.00,WUHU21623XXSP,2013-08-22 02:32:00,
2013-08-21 22:37:00,71.4,64.2,30.10,West,270,0.0,0.0,78,0.00,,,0.00,WUHU21623XXSP,2013-08-22 02:37:00,
2013-08-21 22:42:00,71.4,64.2,30.11,West,270,0.0,0.0,78,0.00,,,0.00,WUHU21623XXSP,2013-08-22 02:42:00,
2013-08-21 22:47:00,71.2,64.0,30.10,West,270,0.0,0.0,78,0.00,,,0.00,WUHU21623XXSP,2013-08-22 02:47:00,
2013-08-21 22:52:00,70.5,63.3,30.10,West,270,0.0,0.0,78,0.00,,,0.00,WUHU21623XXSP,2013-08-22 02:52:00,
2013-08-21 22:57:00,70.3,63.1,30.10,West,270,0.0,0.0,78,0.00,,,0.00,WUHU21623XXSP,2013-08-22 02:57:00,
2013-08-21 23:02:00,70.3,63.1,30.10,West,270,0.0,0.0,78,0.00,,,0.00,WUHU21623XXSP,2013-08-22 03:02:00,
2013-08-21 23:07:00,70.2,63.3,30.10,West,270,0.0,0.0,79,0.00,,,0.00,WUHU21623XXSP,2013-08-22 03:07:00,
2013-08-21 23:12:00,70.2,63.3,30.10,West,270,0.0,0.0,79,0.00,,,0.00,WUHU21623XXSP,2013-08-22 03:12:00,
2013-08-21 23:17:00,70.0,63.5,30.10,West,270,0.0,0.0,80,0.00,,,0.00,WUHU21623XXSP,2013-08-22 03:17:00,
2013-08-21 23:22:00,70.0,63.5,30.10,West,270,0.0,0.0,80,0.00,,,0.00,WUHU21623XXSP,2013-08-22 03:22:00,
2013-08-21 23:27:00,69.6,63.2,30.10,West,270,0.0,0.0,80,0.00,,,0.00,WUHU21623XXSP,2013-08-22 03:27:00,
2013-08-21 23:32:00,69.6,63.2,30.10,West,270,0.0,0.0,80,0.00,,,0.00,WUHU21623XXSP,2013-08-22 03:32:00,
2013-08-21 23:37:00,69.4,63.0,30.10,West,270,0.0,0.0,80,0.00,,,0.00,WUHU21623XXSP,2013-08-22 03:37:00,
2013-08-21 23:42:00,69.3,62.8,30.10,West,270,0.0,0.0,80,0.00,,,0.00,WUHU21623XXSP,2013-08-22 03:42:00,
2013-08-21 23:47:00,69.1,63.0,30.10,West,270,0.0,0.0,81,0.00,,,0.00,WUHU21623XXSP,2013-08-22 03:47:00,
2013-08-21 23:52:00,68.9,62.5,30.10,West,270,0.0,0.0,80,0.00,,,0.00,WUHU21623XXSP,2013-08-22 03:52:00,
2013-08-21 23:57:00,68.9,62.5,30.10,West,270,0.0,0.0,80,0.00,,,0.00,WUHU21623XXSP,2013-08-22 03:57:00,